Time;durP1;ratioP1;P1;durP2;ratioP2;P2;SDS_P1;SDS_P2;PMS_P1;PMS_P2;Temp;Humidity;BMP_temperature;BMP_pressure;BME280_temperature;BME280_humidity;BME280_pressure;Samples;Min_cycle;Max_cycle;Signal;HPM_P1;HPM_P2
2023/04/29 00:00:36;;;;;;;3.70;3.40;;;;;;;;;;5085043;28;20200;-68
2023/04/29 00:03:02;;;;;;;5.18;3.17;;;;;;;;;;5084794;28;20208;-68
2023/04/29 00:05:29;;;;;;;4.05;3.20;;;;;;;;;;5084793;28;20196;-68
2023/04/29 00:07:56;;;;;;;4.63;3.45;;;;;;;;;;5084672;28;20234;-68
2023/04/29 00:10:24;;;;;;;3.80;3.50;;;;;;;;;;5084419;28;20435;-68
2023/04/29 00:12:50;;;;;;;4.43;3.30;;;;;;;;;;5084367;28;20262;-68
2023/04/29 00:15:16;;;;;;;3.72;3.33;;;;;;;;;;5085059;28;20274;-68
2023/04/29 00:17:44;;;;;;;2.75;2.65;;;;;;;;;;5084802;28;20196;-68
2023/04/29 00:20:11;;;;;;;2.90;2.70;;;;;;;;;;5076395;28;20399;-68
2023/04/29 00:22:37;;;;;;;4.13;2.38;;;;;;;;;;5084725;28;20196;-68
2023/04/29 00:25:04;;;;;;;3.20;3.03;;;;;;;;;;5084221;28;20250;-68
2023/04/29 00:27:32;;;;;;;3.45;2.83;;;;;;;;;;5084531;28;20523;-68
2023/04/29 00:29:58;;;;;;;4.20;2.60;;;;;;;;;;5084386;28;20204;-68
2023/04/29 00:32:24;;;;;;;3.05;2.70;;;;;;;;;;5084326;28;20238;-68
2023/04/29 00:34:51;;;;;;;2.63;2.40;;;;;;;;;;5084081;28;20200;-68
2023/04/29 00:37:17;;;;;;;2.97;2.58;;;;;;;;;;5084212;28;20192;-68
2023/04/29 00:39:43;;;;;;;3.53;2.80;;;;;;;;;;5084021;28;20204;-68
2023/04/29 00:42:10;;;;;;;6.05;2.50;;;;;;;;;;5084145;28;20209;-68
2023/04/29 00:44:38;;;;;;;4.43;2.25;;;;;;;;;;5084325;28;20224;-68
2023/04/29 00:47:04;;;;;;;2.63;2.40;;;;;;;;;;5083982;28;20216;-68
2023/04/29 00:49:31;;;;;;;2.83;2.63;;;;;;;;;;5083812;28;20242;-68
2023/04/29 00:51:57;;;;;;;2.50;2.30;;;;;;;;;;5083900;28;20204;-67
2023/04/29 00:54:24;;;;;;;5.32;2.42;;;;;;;;;;5083780;28;20205;-67
2023/04/29 00:56:51;;;;;;;5.07;2.35;;;;;;;;;;5083623;28;20207;-67
2023/04/29 00:59:17;;;;;;;3.45;2.47;;;;;;;;;;5083871;28;20212;-67
2023/04/29 01:01:45;;;;;;;2.22;1.98;;;;;;;;;;5083943;28;20197;-68
2023/04/29 01:04:11;;;;;;;1.92;1.83;;;;;;;;;;5083733;28;20203;-68
2023/04/29 01:06:46;;;;;;;2.47;2.28;;;;;;;;;;5083609;28;20212;-68
2023/04/29 01:09:17;;;;;;;2.17;2.08;;;;;;;;;;5083415;28;20204;-68
2023/04/29 01:11:49;;;;;;;2.22;2.15;;;;;;;;;;5083741;28;20455;-68
2023/04/29 01:14:16;;;;;;;4.32;2.40;;;;;;;;;;5075438;28;20211;-68
2023/04/29 01:16:44;;;;;;;2.45;2.25;;;;;;;;;;5083499;28;20421;-68
2023/04/29 01:19:16;;;;;;;3.55;2.30;;;;;;;;;;5083507;28;20205;-68
2023/04/29 01:21:47;;;;;;;2.72;2.45;;;;;;;;;;5083632;28;20197;-68
2023/04/29 01:24:15;;;;;;;3.83;2.70;;;;;;;;;;5083385;28;20243;-68
2023/04/29 01:26:44;;;;;;;3.55;2.50;;;;;;;;;;5083216;28;20396;-68
2023/04/29 01:29:21;;;;;;;3.00;2.60;;;;;;;;;;5082730;28;20216;-68
2023/04/29 01:31:51;;;;;;;3.75;2.97;;;;;;;;;;5083495;28;20267;-68
2023/04/29 01:34:19;;;;;;;8.40;2.78;;;;;;;;;;5075310;28;20200;-68
2023/04/29 01:36:52;;;;;;;2.88;2.75;;;;;;;;;;5082611;28;20207;-68
2023/04/29 01:39:26;;;;;;;2.10;2.10;;;;;;;;;;5075532;28;20196;-68
2023/04/29 01:41:56;;;;;;;5.28;2.30;;;;;;;;;;5083282;28;20428;-68
2023/04/29 01:44:24;;;;;;;2.95;2.40;;;;;;;;;;5083085;28;20200;-68
2023/04/29 01:46:51;;;;;;;3.38;2.58;;;;;;;;;;5082732;28;20243;-68
2023/04/29 01:49:19;;;;;;;6.07;2.22;;;;;;;;;;5082848;28;20375;-68
2023/04/29 01:51:46;;;;;;;2.58;2.38;;;;;;;;;;5082902;28;20516;-68
2023/04/29 01:54:12;;;;;;;3.15;2.22;;;;;;;;;;5082684;28;20504;-68
2023/04/29 01:56:39;;;;;;;2.72;2.13;;;;;;;;;;5082586;28;20413;-68
2023/04/29 01:59:06;;;;;;;2.50;2.47;;;;;;;;;;5082429;28;20216;-68
2023/04/29 02:01:33;;;;;;;2.20;2.10;;;;;;;;;;5082728;28;20462;-68
2023/04/29 02:03:59;;;;;;;2.80;2.40;;;;;;;;;;5082502;28;20231;-68
2023/04/29 02:06:26;;;;;;;4.35;2.45;;;;;;;;;;5082551;28;20550;-68
2023/04/29 02:08:53;;;;;;;3.13;2.60;;;;;;;;;;5082359;28;20200;-68
2023/04/29 02:11:19;;;;;;;2.35;2.20;;;;;;;;;;5082925;28;20212;-68
2023/04/29 02:13:47;;;;;;;4.20;2.10;;;;;;;;;;5082404;28;20208;-68
2023/04/29 02:16:15;;;;;;;2.72;2.45;;;;;;;;;;5082315;28;20389;-68
2023/04/29 02:18:41;;;;;;;3.85;2.55;;;;;;;;;;5082118;28;20221;-68
2023/04/29 02:21:08;;;;;;;3.60;2.00;;;;;;;;;;5082265;28;20202;-68
2023/04/29 02:23:34;;;;;;;10.52;2.67;;;;;;;;;;5082236;28;20395;-68
2023/04/29 02:26:02;;;;;;;2.63;2.42;;;;;;;;;;5082034;28;20204;-68
2023/04/29 02:28:29;;;;;;;5.55;2.45;;;;;;;;;;5082166;28;20220;-68
2023/04/29 02:30:56;;;;;;;2.95;2.00;;;;;;;;;;5082210;28;20207;-68
2023/04/29 02:33:22;;;;;;;3.65;2.13;;;;;;;;;;5082683;28;20220;-68
2023/04/29 02:35:49;;;;;;;1.95;1.95;;;;;;;;;;5082205;28;20204;-68
2023/04/29 02:38:15;;;;;;;2.28;2.08;;;;;;;;;;5081747;28;20205;-68
2023/04/29 02:40:42;;;;;;;3.70;2.00;;;;;;;;;;5082378;28;20196;-68
2023/04/29 02:43:09;;;;;;;2.22;2.13;;;;;;;;;;5082248;28;20230;-68
2023/04/29 02:45:35;;;;;;;4.25;2.10;;;;;;;;;;5082563;28;20196;-68
2023/04/29 02:48:03;;;;;;;3.22;2.22;;;;;;;;;;5080883;28;20220;-68
2023/04/29 02:50:29;;;;;;;2.40;2.30;;;;;;;;;;5081885;28;20403;-68
2023/04/29 02:52:56;;;;;;;1.88;1.77;;;;;;;;;;5082047;28;20233;-68
2023/04/29 02:55:23;;;;;;;4.32;1.92;;;;;;;;;;5081840;28;20263;-68
2023/04/29 02:57:49;;;;;;;2.33;2.00;;;;;;;;;;5081949;28;20372;-68
2023/04/29 03:00:15;;;;;;;3.55;2.50;;;;;;;;;;5081586;28;20414;-68
2023/04/29 03:02:42;;;;;;;2.72;2.63;;;;;;;;;;5081710;28;20203;-68
2023/04/29 03:05:10;;;;;;;3.15;2.60;;;;;;;;;;5081620;28;20207;-68
2023/04/29 03:07:37;;;;;;;2.55;2.35;;;;;;;;;;5081755;28;20223;-68
2023/04/29 03:10:03;;;;;;;2.55;2.40;;;;;;;;;;5081574;28;20200;-68
2023/04/29 03:12:29;;;;;;;2.50;2.40;;;;;;;;;;5081707;28;20200;-67
2023/04/29 03:14:56;;;;;;;1.90;1.90;;;;;;;;;;5081744;28;20402;-67
2023/04/29 03:17:22;;;;;;;2.70;2.10;;;;;;;;;;5081604;28;20207;-67
2023/04/29 03:19:49;;;;;;;2.83;2.58;;;;;;;;;;5081422;28;20204;-67
2023/04/29 03:22:17;;;;;;;3.70;2.38;;;;;;;;;;5081812;28;20264;-67
2023/04/29 03:24:43;;;;;;;2.20;2.10;;;;;;;;;;5081622;28;20201;-68
2023/04/29 03:27:10;;;;;;;2.05;1.95;;;;;;;;;;5081227;28;20235;-68
2023/04/29 03:29:36;;;;;;;2.08;2.08;;;;;;;;;;5081800;28;20492;-68
2023/04/29 03:32:02;;;;;;;6.18;2.20;;;;;;;;;;5081378;28;20200;-67
2023/04/29 03:34:29;;;;;;;2.38;2.20;;;;;;;;;;5081646;28;20196;-67
2023/04/29 03:36:56;;;;;;;1.90;1.90;;;;;;;;;;5081540;28;20203;-67
2023/04/29 03:39:24;;;;;;;5.18;2.30;;;;;;;;;;5081399;28;20197;-67
2023/04/29 03:41:50;;;;;;;2.60;2.50;;;;;;;;;;5081651;28;20201;-67
2023/04/29 03:44:16;;;;;;;2.00;1.90;;;;;;;;;;5081390;28;20403;-67
2023/04/29 03:46:42;;;;;;;4.00;1.90;;;;;;;;;;5081302;28;20220;-67
2023/04/29 03:49:09;;;;;;;3.53;2.63;;;;;;;;;;5081298;28;20208;-67
2023/04/29 03:51:35;;;;;;;2.47;2.38;;;;;;;;;;5081447;28;20192;-67
2023/04/29 03:54:01;;;;;;;2.13;1.90;;;;;;;;;;5081255;28;20201;-67
2023/04/29 03:56:29;;;;;;;3.38;2.08;;;;;;;;;;5081262;28;20197;-68
2023/04/29 03:58:55;;;;;;;6.03;2.63;;;;;;;;;;5081876;28;20561;-68
2023/04/29 04:01:21;;;;;;;2.20;2.05;;;;;;;;;;5084742;28;20200;-67
2023/04/29 04:03:47;;;;;;;3.25;3.05;;;;;;;;;;5085109;28;20200;-67
2023/04/29 04:06:14;;;;;;;3.60;3.30;;;;;;;;;;5084888;28;20201;-67
2023/04/29 04:08:40;;;;;;;4.60;3.72;;;;;;;;;;5084508;28;20455;-68
2023/04/29 04:11:08;;;;;;;3.35;3.15;;;;;;;;;;5084908;28;20200;-68
2023/04/29 04:13:36;;;;;;;3.40;3.20;;;;;;;;;;5084512;28;20204;-67
2023/04/29 04:16:02;;;;;;;3.08;2.97;;;;;;;;;;5084356;28;20253;-68
2023/04/29 04:18:28;;;;;;;3.15;2.90;;;;;;;;;;5084666;28;20461;-68
2023/04/29 04:20:54;;;;;;;3.42;3.13;;;;;;;;;;5084731;28;20200;-68
2023/04/29 04:23:21;;;;;;;2.72;2.63;;;;;;;;;;5084564;28;20263;-68
2023/04/29 04:25:47;;;;;;;3.67;3.35;;;;;;;;;;5084549;28;20196;-68
2023/04/29 04:28:14;;;;;;;2.55;2.55;;;;;;;;;;5084012;28;20405;-69
2023/04/29 04:30:42;;;;;;;3.13;2.85;;;;;;;;;;5084294;28;20397;-68
2023/04/29 04:33:09;;;;;;;4.43;2.97;;;;;;;;;;5084473;28;20207;-70
2023/04/29 04:35:35;;;;;;;2.53;2.42;;;;;;;;;;5084553;28;20449;-70
2023/04/29 04:38:02;;;;;;;2.90;2.80;;;;;;;;;;5084352;28;20203;-69
2023/04/29 04:40:28;;;;;;;3.63;2.92;;;;;;;;;;5084183;28;20204;-69
2023/04/29 04:42:54;;;;;;;2.65;2.55;;;;;;;;;;5084270;28;20207;-69
2023/04/29 04:45:20;;;;;;;2.92;2.72;;;;;;;;;;5084052;28;20204;-69
2023/04/29 04:47:48;;;;;;;2.75;2.65;;;;;;;;;;5083837;28;20216;-69
2023/04/29 04:50:14;;;;;;;3.33;3.22;;;;;;;;;;5083997;28;20200;-69
2023/04/29 04:52:41;;;;;;;3.88;3.45;;;;;;;;;;5084290;28;20196;-69
2023/04/29 04:55:08;;;;;;;3.38;3.00;;;;;;;;;;5084064;28;20212;-69
2023/04/29 04:57:34;;;;;;;3.78;2.85;;;;;;;;;;5084110;28;20508;-69
2023/04/29 05:00:02;;;;;;;3.10;3.00;;;;;;;;;;5083880;28;20428;-69
2023/04/29 05:02:29;;;;;;;7.05;4.15;;;;;;;;;;5084260;28;20398;-69
2023/04/29 05:04:56;;;;;;;5.07;4.65;;;;;;;;;;5084056;28;20207;-68
2023/04/29 05:07:23;;;;;;;6.03;4.28;;;;;;;;;;5083762;28;20448;-69
2023/04/29 05:09:49;;;;;;;5.07;4.68;;;;;;;;;;5083552;28;20223;-69
2023/04/29 05:12:15;;;;;;;3.90;3.70;;;;;;;;;;5082908;28;20211;-69
2023/04/29 05:14:42;;;;;;;4.65;3.92;;;;;;;;;;5083545;28;20235;-69
2023/04/29 05:17:09;;;;;;;6.68;4.18;;;;;;;;;;5083482;28;20200;-69
2023/04/29 05:19:35;;;;;;;4.55;4.15;;;;;;;;;;5083483;28;20295;-69
2023/04/29 05:22:03;;;;;;;5.47;4.60;;;;;;;;;;5083470;28;20223;-69
2023/04/29 05:24:29;;;;;;;6.55;5.15;;;;;;;;;;5083545;28;20196;-69
2023/04/29 05:26:56;;;;;;;4.70;4.28;;;;;;;;;;5083073;28;20212;-69
2023/04/29 05:29:22;;;;;;;4.55;4.15;;;;;;;;;;5082971;28;20204;-68
2023/04/29 05:31:49;;;;;;;5.28;4.90;;;;;;;;;;5083231;28;20204;-69
2023/04/29 05:34:15;;;;;;;4.30;4.00;;;;;;;;;;5083066;28;20258;-69
2023/04/29 05:36:41;;;;;;;4.72;4.32;;;;;;;;;;5083044;28;20196;-69
2023/04/29 05:39:09;;;;;;;8.82;4.28;;;;;;;;;;5082770;28;20203;-69
2023/04/29 05:41:35;;;;;;;6.85;4.18;;;;;;;;;;5082816;28;20507;-68
2023/04/29 05:44:01;;;;;;;4.32;4.03;;;;;;;;;;5083121;28;20373;-69
2023/04/29 05:46:28;;;;;;;4.25;3.83;;;;;;;;;;5082938;28;20201;-68
2023/04/29 05:48:54;;;;;;;4.90;4.60;;;;;;;;;;5082872;28;20341;-68
2023/04/29 05:51:20;;;;;;;4.15;3.85;;;;;;;;;;5082968;28;20204;-69
2023/04/29 05:53:46;;;;;;;4.80;4.32;;;;;;;;;;5082828;28;20197;-69
2023/04/29 05:56:15;;;;;;;4.72;4.30;;;;;;;;;;5082647;28;20222;-69
2023/04/29 05:58:41;;;;;;;4.38;4.07;;;;;;;;;;5082610;28;20236;-69
2023/04/29 06:01:08;;;;;;;4.47;4.28;;;;;;;;;;5082574;28;20201;-69
2023/04/29 06:03:34;;;;;;;4.72;4.32;;;;;;;;;;5082811;28;20196;-69
2023/04/29 06:06:00;;;;;;;4.05;3.85;;;;;;;;;;5082692;28;20200;-69
2023/04/29 06:08:27;;;;;;;4.60;4.40;;;;;;;;;;5082079;28;20531;-69
2023/04/29 06:10:53;;;;;;;4.43;4.20;;;;;;;;;;5082686;28;20437;-69
2023/04/29 06:13:21;;;;;;;4.50;4.18;;;;;;;;;;5082479;28;20204;-69
2023/04/29 06:15:47;;;;;;;4.47;4.28;;;;;;;;;;5082581;28;20202;-69
2023/04/29 06:18:13;;;;;;;4.00;3.80;;;;;;;;;;5082191;28;20500;-69
2023/04/29 06:20:39;;;;;;;4.05;3.85;;;;;;;;;;5082580;28;20522;-69
2023/04/29 06:23:06;;;;;;;4.57;4.25;;;;;;;;;;5082099;28;20508;-68
2023/04/29 06:25:33;;;;;;;4.88;4.47;;;;;;;;;;5082707;28;20219;-69
2023/04/29 06:27:59;;;;;;;5.78;5.28;;;;;;;;;;5082399;28;20227;-68
2023/04/29 06:30:27;;;;;;;5.97;5.43;;;;;;;;;;5082290;28;20204;-68
2023/04/29 06:32:53;;;;;;;5.40;4.65;;;;;;;;;;5082297;28;20200;-68
2023/04/29 06:35:20;;;;;;;4.40;4.20;;;;;;;;;;5082736;28;20504;-68
2023/04/29 06:37:46;;;;;;;8.73;4.93;;;;;;;;;;5082468;28;20260;-68
2023/04/29 06:40:12;;;;;;;5.25;4.75;;;;;;;;;;5082409;28;20382;-68
2023/04/29 06:42:39;;;;;;;5.20;4.90;;;;;;;;;;5082554;28;20514;-68
2023/04/29 06:45:06;;;;;;;4.85;4.57;;;;;;;;;;5082413;28;20267;-68
2023/04/29 06:47:33;;;;;;;4.03;3.70;;;;;;;;;;5073952;28;20238;-68
2023/04/29 06:50:00;;;;;;;4.25;3.92;;;;;;;;;;5082057;28;20410;-68
2023/04/29 06:52:26;;;;;;;3.75;3.63;;;;;;;;;;5082080;28;20403;-68
2023/04/29 06:54:52;;;;;;;3.60;3.40;;;;;;;;;;5082392;28;20200;-68
2023/04/29 06:57:19;;;;;;;4.78;4.13;;;;;;;;;;5082213;28;20200;-68
2023/04/29 06:59:45;;;;;;;4.80;3.08;;;;;;;;;;5082223;28;20250;-68
2023/04/29 07:02:12;;;;;;;3.85;3.50;;;;;;;;;;5082159;28;20212;-68
2023/04/29 07:04:40;;;;;;;3.58;3.38;;;;;;;;;;5082077;28;20241;-68
2023/04/29 07:07:06;;;;;;;2.78;2.67;;;;;;;;;;5082007;28;20212;-68
2023/04/29 07:09:33;;;;;;;3.00;2.63;;;;;;;;;;5081887;28;20213;-68
2023/04/29 07:12:03;;;;;;;2.65;2.55;;;;;;;;;;5081895;28;20207;-68
2023/04/29 07:14:29;;;;;;;3.10;2.88;;;;;;;;;;5081894;28;20200;-68
2023/04/29 07:16:56;;;;;;;2.70;2.60;;;;;;;;;;5081884;28;20282;-68
2023/04/29 07:19:22;;;;;;;3.25;2.42;;;;;;;;;;5081671;28;20196;-68
2023/04/29 07:21:50;;;;;;;2.30;2.20;;;;;;;;;;5081978;28;20196;-68
2023/04/29 07:24:16;;;;;;;2.42;2.30;;;;;;;;;;5081736;28;20500;-68
2023/04/29 07:26:43;;;;;;;2.30;2.20;;;;;;;;;;5081926;28;20531;-68
2023/04/29 07:29:09;;;;;;;2.25;2.22;;;;;;;;;;5081522;28;20224;-68
2023/04/29 07:31:35;;;;;;;2.45;2.30;;;;;;;;;;5073762;28;20457;-68
2023/04/29 07:34:01;;;;;;;2.40;2.20;;;;;;;;;;5082654;28;20200;-68
2023/04/29 07:36:28;;;;;;;4.70;2.65;;;;;;;;;;5085807;28;20200;-68
2023/04/29 07:38:55;;;;;;;2.53;2.30;;;;;;;;;;5085633;28;20196;-68
2023/04/29 07:41:22;;;;;;;2.47;2.38;;;;;;;;;;5085594;28;20207;-67
2023/04/29 07:43:48;;;;;;;2.97;2.45;;;;;;;;;;5085554;28;20200;-68
2023/04/29 07:46:15;;;;;;;2.30;2.20;;;;;;;;;;5085299;28;20223;-68
2023/04/29 07:48:41;;;;;;;2.65;2.45;;;;;;;;;;5085022;28;20550;-68
2023/04/29 07:51:12;;;;;;;2.40;2.15;;;;;;;;;;5085543;28;20431;-68
2023/04/29 07:53:38;;;;;;;2.30;2.20;;;;;;;;;;5077508;28;20204;-68
2023/04/29 07:56:07;;;;;;;3.75;2.40;;;;;;;;;;5085252;28;20280;-68
2023/04/29 07:58:33;;;;;;;2.05;2.05;;;;;;;;;;5084871;28;20199;-68
2023/04/29 08:01:05;;;;;;;2.20;2.00;;;;;;;;;;5085200;28;20546;-68
2023/04/29 08:03:31;;;;;;;1.98;1.98;;;;;;;;;;5085202;28;20538;-68
2023/04/29 08:06:00;;;;;;;4.90;1.60;;;;;;;;;;5085235;28;20508;-68
2023/04/29 08:08:26;;;;;;;1.90;1.90;;;;;;;;;;5084837;28;20220;-68
2023/04/29 08:10:52;;;;;;;5.35;1.88;;;;;;;;;;5085157;28;20200;-68
2023/04/29 08:13:20;;;;;;;2.90;1.58;;;;;;;;;;5084824;28;20204;-68
2023/04/29 08:15:46;;;;;;;1.70;1.60;;;;;;;;;;5084895;28;20203;-68
2023/04/29 08:18:13;;;;;;;2.05;1.70;;;;;;;;;;5084912;28;20200;-60
2023/04/29 08:20:39;;;;;;;1.88;1.60;;;;;;;;;;5085508;28;20565;-60
2023/04/29 08:23:05;;;;;;;1.90;1.80;;;;;;;;;;5085652;28;20271;-61
2023/04/29 08:25:32;;;;;;;1.60;1.60;;;;;;;;;;5085155;28;20500;-61
2023/04/29 08:27:58;;;;;;;1.80;1.70;;;;;;;;;;5084930;28;20242;-61
2023/04/29 08:30:26;;;;;;;1.77;1.67;;;;;;;;;;5084920;28;20443;-60
2023/04/29 08:32:52;;;;;;;3.75;1.50;;;;;;;;;;5085262;28;20381;-60
2023/04/29 08:35:18;;;;;;;1.70;1.70;;;;;;;;;;5085161;28;20200;-60
2023/04/29 08:37:45;;;;;;;2.83;1.55;;;;;;;;;;5084638;28;20508;-61
2023/04/29 08:40:13;;;;;;;2.90;1.90;;;;;;;;;;5084249;28;20434;-61
2023/04/29 08:42:40;;;;;;;1.60;1.40;;;;;;;;;;5076111;28;20205;-61
2023/04/29 08:45:06;;;;;;;1.75;1.42;;;;;;;;;;5084539;28;20238;-61
2023/04/29 08:47:34;;;;;;;1.30;1.20;;;;;;;;;;5084255;28;20209;-61
2023/04/29 08:50:02;;;;;;;1.40;1.27;;;;;;;;;;5084157;28;20223;-61
2023/04/29 08:52:28;;;;;;;1.98;1.67;;;;;;;;;;5084195;28;20507;-61
2023/04/29 08:54:54;;;;;;;1.40;1.40;;;;;;;;;;5084184;28;20530;-61
2023/04/29 08:57:21;;;;;;;1.85;1.30;;;;;;;;;;5084056;28;20271;-61
2023/04/29 08:59:48;;;;;;;2.30;1.45;;;;;;;;;;5084139;28;20192;-61
2023/04/29 09:02:17;;;;;;;1.63;1.52;;;;;;;;;;5084532;28;20200;-61
2023/04/29 09:04:47;;;;;;;1.80;1.70;;;;;;;;;;5076307;28;20196;-61
2023/04/29 09:07:13;;;;;;;4.65;1.70;;;;;;;;;;5083996;28;20208;-61
2023/04/29 09:09:41;;;;;;;2.65;1.50;;;;;;;;;;5083421;28;20223;-61
2023/04/29 09:12:08;;;;;;;1.70;1.70;;;;;;;;;;5084240;28;20200;-61
2023/04/29 09:14:34;;;;;;;1.98;1.90;;;;;;;;;;5083673;28;20204;-61
2023/04/29 09:17:01;;;;;;;1.70;1.65;;;;;;;;;;5083905;28;20207;-61
2023/04/29 09:19:30;;;;;;;1.88;1.80;;;;;;;;;;5083574;28;20279;-61
2023/04/29 09:21:58;;;;;;;2.10;2.00;;;;;;;;;;5083545;28;20209;-60
2023/04/29 09:24:25;;;;;;;2.10;2.00;;;;;;;;;;5083407;28;20208;-61
2023/04/29 09:26:51;;;;;;;2.05;1.60;;;;;;;;;;5083590;28;20201;-61
2023/04/29 09:29:18;;;;;;;2.85;2.33;;;;;;;;;;5083208;28;20216;-61
2023/04/29 09:31:44;;;;;;;5.40;2.13;;;;;;;;;;5083586;28;20468;-61
2023/04/29 09:34:11;;;;;;;2.45;2.35;;;;;;;;;;5083589;28;20389;-61
2023/04/29 09:36:39;;;;;;;4.00;2.38;;;;;;;;;;5083324;28;20399;-61
2023/04/29 09:39:10;;;;;;;2.30;2.10;;;;;;;;;;5083006;28;20204;-61
2023/04/29 09:41:37;;;;;;;2.67;2.35;;;;;;;;;;5083377;28;20543;-61
2023/04/29 09:44:04;;;;;;;3.35;2.08;;;;;;;;;;5083340;28;20223;-61
2023/04/29 09:46:31;;;;;;;3.30;2.40;;;;;;;;;;5083140;28;20404;-61
2023/04/29 09:48:58;;;;;;;2.10;2.00;;;;;;;;;;5082852;28;20227;-61
2023/04/29 09:51:24;;;;;;;2.20;2.10;;;;;;;;;;5082829;28;20200;-61
2023/04/29 09:53:50;;;;;;;2.03;1.92;;;;;;;;;;5083204;28;20523;-61
2023/04/29 09:56:18;;;;;;;3.60;1.80;;;;;;;;;;5082834;28;20508;-61
2023/04/29 09:58:44;;;;;;;1.88;1.85;;;;;;;;;;5082961;28;20199;-61
2023/04/29 10:01:12;;;;;;;1.67;1.67;;;;;;;;;;5082874;28;20201;-61
2023/04/29 10:03:38;;;;;;;3.05;1.90;;;;;;;;;;5082754;28;20271;-61
2023/04/29 10:06:05;;;;;;;3.97;1.50;;;;;;;;;;5082699;28;20213;-61
2023/04/29 10:08:32;;;;;;;1.50;1.40;;;;;;;;;;5082345;28;20201;-61
2023/04/29 10:11:00;;;;;;;2.03;1.95;;;;;;;;;;5082849;28;20497;-61
2023/04/29 10:13:28;;;;;;;1.92;1.83;;;;;;;;;;5082581;28;20208;-60
2023/04/29 10:15:57;;;;;;;1.58;1.33;;;;;;;;;;5083002;28;20392;-61
2023/04/29 10:18:28;;;;;;;1.63;1.50;;;;;;;;;;5082633;28;20272;-61
2023/04/29 10:20:57;;;;;;;2.03;1.90;;;;;;;;;;5082992;28;20200;-62
2023/04/29 10:23:23;;;;;;;2.25;1.83;;;;;;;;;;5082945;28;20225;-61
2023/04/29 10:25:52;;;;;;;1.35;1.35;;;;;;;;;;5082898;28;20216;-61
2023/04/29 10:28:20;;;;;;;1.50;1.50;;;;;;;;;;5082444;28;20228;-61
2023/04/29 10:30:50;;;;;;;1.55;1.45;;;;;;;;;;5074579;28;20409;-62
2023/04/29 10:33:17;;;;;;;2.08;1.27;;;;;;;;;;5082622;28;20200;-61
2023/04/29 10:35:43;;;;;;;1.40;1.40;;;;;;;;;;5082774;28;20394;-61
2023/04/29 10:38:13;;;;;;;1.63;1.52;;;;;;;;;;5082454;28;20242;-61
2023/04/29 10:40:42;;;;;;;1.27;1.27;;;;;;;;;;5082625;28;20401;-61
2023/04/29 10:43:08;;;;;;;1.15;1.00;;;;;;;;;;5082745;28;20196;-61
2023/04/29 10:45:34;;;;;;;1.35;1.33;;;;;;;;;;5082601;28;20207;-61
2023/04/29 10:48:10;;;;;;;1.30;1.20;;;;;;;;;;5082515;28;20204;-61
2023/04/29 10:50:41;;;;;;;1.08;1.08;;;;;;;;;;5082546;28;20223;-61
2023/04/29 10:53:07;;;;;;;1.52;1.42;;;;;;;;;;5082582;28;20208;-61
2023/04/29 10:55:36;;;;;;;2.15;1.60;;;;;;;;;;5082476;28;20207;-61
2023/04/29 10:58:03;;;;;;;2.83;1.60;;;;;;;;;;5082287;28;20207;-62
2023/04/29 11:00:29;;;;;;;3.05;1.40;;;;;;;;;;5082763;28;20196;-62
2023/04/29 11:02:56;;;;;;;1.67;1.40;;;;;;;;;;5082484;28;20200;-62
2023/04/29 11:05:31;;;;;;;2.83;1.67;;;;;;;;;;5082287;28;20239;-62
2023/04/29 11:08:10;;;;;;;3.28;1.45;;;;;;;;;;5082244;28;20210;-62
2023/04/29 11:10:36;;;;;;;2.60;1.58;;;;;;;;;;5085876;28;20222;-62
2023/04/29 11:13:21;;;;;;;2.95;1.15;;;;;;;;;;5085901;28;20204;-62
2023/04/29 11:15:47;;;;;;;5.93;1.65;;;;;;;;;;5086158;28;20403;-61
2023/04/29 11:18:13;;;;;;;1.85;1.50;;;;;;;;;;5086072;28;20207;-61
2023/04/29 11:20:55;;;;;;;1.17;1.00;;;;;;;;;;5086221;28;20196;-62
2023/04/29 11:23:24;;;;;;;1.42;1.42;;;;;;;;;;5086132;28;20208;-62
2023/04/29 11:25:50;;;;;;;2.55;1.52;;;;;;;;;;5078682;28;20530;-61
2023/04/29 11:28:18;;;;;;;1.65;1.55;;;;;;;;;;5085931;28;20220;-62
2023/04/29 11:30:45;;;;;;;1.65;1.40;;;;;;;;;;5086092;28;20539;-62
2023/04/29 11:33:11;;;;;;;1.42;1.33;;;;;;;;;;5086109;28;20220;-62
2023/04/29 11:35:39;;;;;;;1.50;1.38;;;;;;;;;;5085730;28;20201;-62
2023/04/29 11:38:06;;;;;;;1.65;1.52;;;;;;;;;;5085377;28;20511;-62
2023/04/29 11:40:34;;;;;;;2.42;1.35;;;;;;;;;;5086165;28;20656;-62
2023/04/29 11:43:00;;;;;;;3.30;1.50;;;;;;;;;;5085983;28;20216;-62
2023/04/29 11:45:26;;;;;;;2.95;1.10;;;;;;;;;;5085818;28;20453;-62
2023/04/29 11:47:53;;;;;;;1.90;1.10;;;;;;;;;;5085771;28;20275;-62
2023/04/29 11:50:19;;;;;;;1.33;1.23;;;;;;;;;;5085218;28;20426;-61
2023/04/29 11:52:46;;;;;;;1.25;1.25;;;;;;;;;;5085478;28;20254;-61
2023/04/29 11:55:13;;;;;;;1.10;1.10;;;;;;;;;;5085446;28;20222;-61
2023/04/29 11:57:41;;;;;;;0.80;0.80;;;;;;;;;;5085359;28;20272;-61
2023/04/29 12:00:08;;;;;;;1.95;1.30;;;;;;;;;;5085309;28;20299;-63
2023/04/29 12:02:35;;;;;;;1.25;1.10;;;;;;;;;;5085274;28;20200;-62
2023/04/29 12:05:06;;;;;;;2.70;1.30;;;;;;;;;;5085036;28;20208;-63
2023/04/29 12:07:32;;;;;;;1.63;1.48;;;;;;;;;;5085203;28;20508;-63
2023/04/29 12:09:59;;;;;;;1.65;1.30;;;;;;;;;;5084949;28;20219;-63
2023/04/29 12:12:27;;;;;;;1.17;1.17;;;;;;;;;;5084848;28;20242;-63
2023/04/29 12:14:54;;;;;;;1.25;1.25;;;;;;;;;;5084835;28;20214;-63
2023/04/29 12:17:21;;;;;;;1.65;1.30;;;;;;;;;;5084768;28;20204;-63
2023/04/29 12:19:48;;;;;;;1.40;1.30;;;;;;;;;;5084455;28;20196;-63
2023/04/29 12:22:14;;;;;;;2.17;2.08;;;;;;;;;;5084962;28;20200;-63
2023/04/29 12:24:40;;;;;;;1.60;1.50;;;;;;;;;;5084973;28;20267;-63
2023/04/29 12:27:08;;;;;;;1.55;1.45;;;;;;;;;;5084728;28;20492;-63
2023/04/29 12:29:35;;;;;;;1.98;1.70;;;;;;;;;;5084631;28;20432;-63
2023/04/29 12:32:03;;;;;;;7.90;3.88;;;;;;;;;;5084726;28;20209;-63
2023/04/29 12:34:29;;;;;;;3.75;2.72;;;;;;;;;;5084887;28;20253;-63
2023/04/29 12:36:56;;;;;;;4.45;3.35;;;;;;;;;;5084618;28;20228;-63
2023/04/29 12:39:22;;;;;;;6.13;4.45;;;;;;;;;;5084395;28;20216;-63
2023/04/29 12:41:49;;;;;;;2.70;2.60;;;;;;;;;;5084490;28;20406;-63
2023/04/29 12:44:15;;;;;;;3.40;3.03;;;;;;;;;;5084453;28;20201;-63
2023/04/29 12:46:41;;;;;;;2.95;2.63;;;;;;;;;;5084144;28;20200;-63
2023/04/29 12:49:09;;;;;;;2.60;2.40;;;;;;;;;;5084404;28;20224;-63
2023/04/29 12:51:36;;;;;;;2.03;2.00;;;;;;;;;;5084424;28;20220;-62
2023/04/29 12:54:03;;;;;;;2.38;2.20;;;;;;;;;;5084331;28;20208;-62
2023/04/29 12:56:30;;;;;;;2.25;2.15;;;;;;;;;;5084147;28;20523;-62
2023/04/29 12:58:56;;;;;;;3.28;2.03;;;;;;;;;;5083955;28;20200;-62
2023/04/29 13:01:22;;;;;;;16.73;2.58;;;;;;;;;;5084361;28;20197;-63
2023/04/29 13:03:50;;;;;;;18.77;3.17;;;;;;;;;;5084067;28;20418;-62
2023/04/29 13:06:17;;;;;;;2.70;2.50;;;;;;;;;;5084150;28;20208;-62
2023/04/29 13:08:44;;;;;;;2.13;2.03;;;;;;;;;;5083855;28;20201;-62
2023/04/29 13:11:12;;;;;;;3.00;2.30;;;;;;;;;;5084139;28;20212;-62
2023/04/29 13:13:38;;;;;;;2.60;2.40;;;;;;;;;;5083707;28;20504;-62
2023/04/29 13:16:05;;;;;;;2.85;2.60;;;;;;;;;;5084142;28;20205;-62
2023/04/29 13:18:31;;;;;;;4.13;2.28;;;;;;;;;;5083833;28;20246;-62
2023/04/29 13:20:57;;;;;;;4.38;4.07;;;;;;;;;;5084288;28;20193;-62
2023/04/29 13:23:25;;;;;;;3.03;2.92;;;;;;;;;;5083936;28;20201;-62
2023/04/29 13:25:51;;;;;;;2.58;2.42;;;;;;;;;;5083758;28;20196;-62
2023/04/29 13:28:18;;;;;;;4.03;3.13;;;;;;;;;;5083881;28;20217;-62
2023/04/29 13:30:44;;;;;;;3.50;3.30;;;;;;;;;;5083822;28;20266;-62
2023/04/29 13:33:10;;;;;;;2.83;2.60;;;;;;;;;;5083121;28;20212;-62
2023/04/29 13:35:37;;;;;;;3.28;2.95;;;;;;;;;;5083648;28;20259;-62
2023/04/29 13:38:04;;;;;;;4.65;2.70;;;;;;;;;;5083532;28;20219;-62
2023/04/29 13:40:31;;;;;;;2.95;2.75;;;;;;;;;;5083260;28;20387;-62
2023/04/29 13:42:57;;;;;;;5.10;4.35;;;;;;;;;;5075723;28;20196;-62
2023/04/29 13:45:24;;;;;;;3.20;2.90;;;;;;;;;;5083604;28;20258;-62
2023/04/29 13:47:50;;;;;;;3.25;2.90;;;;;;;;;;5083514;28;20200;-62
2023/04/29 13:50:16;;;;;;;4.10;3.20;;;;;;;;;;5083422;28;20224;-63
2023/04/29 13:52:42;;;;;;;3.50;3.13;;;;;;;;;;5083077;28;20254;-62
2023/04/29 13:55:09;;;;;;;4.50;3.70;;;;;;;;;;5083163;28;20207;-62
2023/04/29 13:57:37;;;;;;;4.68;3.58;;;;;;;;;;5082937;28;20394;-62
2023/04/29 14:00:03;;;;;;;3.85;3.55;;;;;;;;;;5082765;28;20199;-62
2023/04/29 14:02:29;;;;;;;17.98;6.63;;;;;;;;;;5082973;28;20196;-62
2023/04/29 14:04:56;;;;;;;3.83;3.63;;;;;;;;;;5082923;28;20254;-62
2023/04/29 14:07:22;;;;;;;3.67;3.47;;;;;;;;;;5083481;28;20263;-62
2023/04/29 14:09:49;;;;;;;3.83;3.45;;;;;;;;;;5083171;28;20204;-62
2023/04/29 14:12:15;;;;;;;8.43;4.25;;;;;;;;;;5083610;28;20283;-62
2023/04/29 14:14:42;;;;;;;6.38;3.80;;;;;;;;;;5082806;28;20211;-62
2023/04/29 14:17:09;;;;;;;3.88;3.60;;;;;;;;;;5082997;28;20523;-62
2023/04/29 14:19:35;;;;;;;4.25;3.47;;;;;;;;;;5082838;28;20369;-62
2023/04/29 14:22:02;;;;;;;3.38;3.08;;;;;;;;;;5083086;28;20212;-62
2023/04/29 14:24:29;;;;;;;3.08;2.83;;;;;;;;;;5082887;28;20226;-62
2023/04/29 14:26:56;;;;;;;3.67;3.47;;;;;;;;;;5082977;28;20550;-62
2023/04/29 14:29:22;;;;;;;3.38;3.10;;;;;;;;;;5082492;28;20197;-63
2023/04/29 14:31:50;;;;;;;4.00;3.75;;;;;;;;;;5082392;28;20229;-62
2023/04/29 14:34:18;;;;;;;4.28;3.97;;;;;;;;;;5082826;28;20204;-62
2023/04/29 14:36:44;;;;;;;4.55;4.22;;;;;;;;;;5082198;28;20211;-62
2023/04/29 14:39:11;;;;;;;4.32;4.05;;;;;;;;;;5082055;28;20227;-62
2023/04/29 14:41:37;;;;;;;3.58;3.28;;;;;;;;;;5082377;28;20230;-62